• Join FlightAware (Why Join?)
  • Login
  • US Flag 
07:58PM EST


 

Airport Tracker/Info


-or-


 

Live Flight TrackerFlight Track Log ✈ LXJ549 ✈ 07-Jul-2013 ✈ KPWM - KBDR

Flight Track Log - Related Links

Times and Time Zones

All times are in EDT time to prevent confusion due to time zone crossing. See the LXJ549 flight status page for this flight to view local times or setup timezone preferences in your user account.

Time Position Orientation Groundspeed Altitude Reporting Facility
EDT Latitude Longitude Course Direction KTS MPH feet Rate Location/Type
04:08PM 43.6531 -70.3739 274° West 181 208 2,200  Level Boston Center
04:09PM 43.6564 -70.4428 274° West 248 285 5,600 3,500 Climbing Boston Center
04:10PM 43.6622 -70.5489 274° West 257 296 9,900 2,000 Climbing Boston Center
04:11PM 43.6708 -70.6919 275° West 301 346 10,000 300 Climbing Boston Center
04:12PM 43.6747 -70.8153 273° West 325 374 10,500 2,100 Climbing Boston Center
04:13PM 43.6431 -70.9367 250° West 325 374 14,200 3,250 Climbing Boston Center
04:14PM 43.6131 -71.0464 249° West 345 397 17,000 2,826 Climbing Boston Center
04:15PM 43.6003 -71.1900 263° West 344 396 19,900 2,850 Climbing Boston Center
04:16PM 43.6286 -71.3244 286° West 344 396 22,700 2,218 Climbing Boston Center
04:17PM 43.6572 -71.4672 286° West 367 422 24,300 1,650 Climbing Boston Center
04:18PM 43.6833 -71.6161 284° West 386 444 26,000 773 Climbing Boston Center
04:19PM 43.6489 -71.7717 253° West 401 461 26,000  Level Boston Center
04:20PM 43.5789 -71.9356 240° Southwest 407 468 26,000  Level Boston Center
04:21PM 43.5253 -72.0708 241° Southwest 412 474 26,000  Level Boston Center
04:22PM 43.4692 -72.2028 240° Southwest 412 474 26,000  Level Boston Center
04:23PM 43.4175 -72.3314 241° Southwest 400 460 26,000 -450 Level Boston Center
04:24PM 43.3467 -72.4400 228° Southwest 390 449 25,100 -850 Descending Boston Center
04:25PM 43.2756 -72.5483 228° Southwest 390 449 24,300 -550 Descending Boston Center
04:26PM 43.1922 -72.6508 222° Southwest 390 449 24,000 -150 Descending Boston Center
04:27PM 43.1044 -72.7614 223° Southwest 407 468 24,000  Level Boston Center
04:28PM 43.0269 -72.8606 223° Southwest 420 483 24,000  Level Boston Center
04:29PM 42.9411 -72.9647 222° Southwest 420 483 24,000  Level Boston Center
04:30PM 42.8467 -73.0858 223° Southwest 420 483 24,000 -545 Level Boston Center
04:32PM 42.7711 -73.1811 223° Southwest 420 483 22,800 -1,273 Descending Boston Center
04:33PM 42.6744 -73.3014 222° Southwest 409 471 21,200 -1,700 Descending Boston Center
04:34PM 42.5922 -73.4017 222° Southwest 404 465 19,400 -1,850 Descending Boston Center
04:35PM 42.5122 -73.4906 219° Southwest 384 442 17,500 -1,950 Descending Boston Center
04:36PM 42.4281 -73.5906 221° Southwest 372 428 15,500 -1,850 Descending Boston Center
04:37PM 42.3644 -73.6708 223° Southwest 360 414 13,800 -1,800 Descending Boston Center
04:38PM 42.2786 -73.7253 205° Southwest 337 388 11,900 -1,400 Descending Boston Center
04:39PM 42.1933 -73.7094 172° South 327 376 11,000 -450 Descending Boston Center
04:40PM 42.0997 -73.6908 172° South 333 383 11,000  Level Boston Center
04:41PM 41.9958 -73.6608 168° South 345 397 11,000  Level Boston Center
04:42PM 41.9064 -73.6394 170° South 355 409 11,000  Level Boston Center
04:43PM 41.8067 -73.6125 169° South 347 399 11,000 -500 Level Boston Center
04:44PM 41.7381 -73.5864 164° South 308 354 10,000 -1,350 Descending Boston Center
04:45PM 41.6508 -73.5458 161° South 295 339 8,300 -1,451 Descending Boston Center
04:47PM 41.5000 -73.4500 155° Southeast 282 325 5,600 -1,340 Descending New York TRACON
04:48PM 41.4333 -73.4000 151° Southeast 274 315 4,100 -762 Descending New York TRACON
04:49PM 41.4000 -73.3000 114° Southeast 285 328 4,000 -53 Descending New York TRACON
04:50PM 41.3667 -73.2167 118° Southeast 283 326 4,000 -50 Level New York TRACON
04:51PM 41.3333 -73.1167 114° Southeast 283 326 3,900 -550 Descending New York TRACON
04:52PM 41.2833 -73.0667 143° Southeast 275 316 2,900 -1,105 Descending New York TRACON
04:53PM 41.2167 -73.0500 169° South 222 255 1,800 -1,100 Descending New York TRACON